createdAt,value
2022-10-15T00:01:22.210Z,91.46
2022-10-15T00:04:24.031Z,91.07
2022-10-15T00:07:26.111Z,91.73
2022-10-15T00:10:28.302Z,91.37
2022-10-15T00:13:30.061Z,91.04
2022-10-15T00:16:35.390Z,90.91
2022-10-15T00:19:37.091Z,91.98
2022-10-15T00:22:39.289Z,92.61
2022-10-15T00:25:42.844Z,92.42
2022-10-15T00:28:44.726Z,92.40
2022-10-15T00:31:46.703Z,92.13
2022-10-15T00:34:48.729Z,92.49
2022-10-15T00:37:50.538Z,92.22
2022-10-15T00:40:52.973Z,91.36
2022-10-15T00:44:19.447Z,90.66
2022-10-15T00:47:29.097Z,91.22
2022-10-15T00:50:34.141Z,91.43
2022-10-15T00:53:36.680Z,91.55
2022-10-15T00:56:40.562Z,92.70
2022-10-15T00:59:51.192Z,94.29
2022-10-15T01:02:52.930Z,93.44
2022-10-15T01:05:55.458Z,92.77
2022-10-15T01:08:57.351Z,92.55
2022-10-15T01:11:59.214Z,92.68
2022-10-15T01:15:10.601Z,93.50
2022-10-15T01:18:16.033Z,93.22
2022-10-15T01:21:18.071Z,92.95
2022-10-15T01:24:37.597Z,92.95
2022-10-15T01:27:55.533Z,93.66
2022-10-15T01:31:04.635Z,94.24
2022-10-15T01:34:16.074Z,93.17
2022-10-15T01:37:32.604Z,93.27
2022-10-15T01:41:01.557Z,97.09
2022-10-15T01:44:09.214Z,99.04
2022-10-15T01:47:46.980Z,100.00
2022-10-15T01:50:52.237Z,100.00
2022-10-15T01:53:55.026Z,100.00
2022-10-15T01:56:58.549Z,100.00
2022-10-15T02:00:02.192Z,100.00
2022-10-15T02:03:14.515Z,100.00
2022-10-15T02:06:24.353Z,100.00
2022-10-15T02:09:32.684Z,100.00
2022-10-15T02:12:42.832Z,100.00
2022-10-15T02:16:13.312Z,100.00
2022-10-15T02:19:24.591Z,100.00
2022-10-15T02:22:45.379Z,100.00
2022-10-15T02:25:50.707Z,100.00
2022-10-15T02:28:55.214Z,100.00
2022-10-15T02:31:58.220Z,100.00
2022-10-15T02:35:00.890Z,100.00
2022-10-15T02:38:06.097Z,100.00
2022-10-15T02:41:09.740Z,100.00
2022-10-15T02:44:11.546Z,100.00
2022-10-15T02:47:13.503Z,100.00
2022-10-15T02:50:15.950Z,100.00
2022-10-15T02:53:17.750Z,100.00
2022-10-15T02:56:19.678Z,100.00
2022-10-15T02:59:22.505Z,100.00
2022-10-15T03:02:28.167Z,100.00
2022-10-15T03:05:30.165Z,100.00
2022-10-15T03:08:32.322Z,100.00
2022-10-15T03:11:38.822Z,100.00
2022-10-15T03:14:42.108Z,100.00
2022-10-15T03:17:44.083Z,100.00
2022-10-15T03:20:53.701Z,100.00
2022-10-15T03:23:55.749Z,100.00
2022-10-15T03:26:59.589Z,100.00
2022-10-15T03:30:01.616Z,100.00
2022-10-15T03:33:06.434Z,100.00
2022-10-15T03:36:09.945Z,100.00
2022-10-15T03:39:12.892Z,100.00
2022-10-15T03:42:15.145Z,100.00
2022-10-15T03:45:20.591Z,100.00
2022-10-15T03:48:28.150Z,100.00
2022-10-15T03:51:31.754Z,100.00
2022-10-15T03:54:41.662Z,100.00
2022-10-15T03:57:44.668Z,100.00
2022-10-15T04:00:47.016Z,100.00
2022-10-15T04:03:53.120Z,100.00
2022-10-15T04:06:59.655Z,100.00
2022-10-15T04:10:02.138Z,100.00
2022-10-15T04:13:12.976Z,100.00
2022-10-15T04:16:17.932Z,100.00
2022-10-15T04:19:20.155Z,100.00
2022-10-15T04:22:32.535Z,100.00
2022-10-15T04:25:37.621Z,100.00
2022-10-15T04:28:39.561Z,100.00
2022-10-15T04:31:42.072Z,100.00
2022-10-15T04:34:46.470Z,100.00
2022-10-15T04:37:50.098Z,100.00
2022-10-15T04:41:08.397Z,100.00
2022-10-15T04:44:25.455Z,100.00
2022-10-15T04:47:30.965Z,100.00
2022-10-15T04:50:48.321Z,100.00
2022-10-15T04:53:55.605Z,100.00
2022-10-15T04:56:57.551Z,100.00
2022-10-15T04:59:59.903Z,100.00
2022-10-15T05:03:07.959Z,100.00
2022-10-15T05:06:20.093Z,100.00
2022-10-15T05:09:22.775Z,100.00
2022-10-15T05:12:26.424Z,100.00
2022-10-15T05:15:29.447Z,100.00
2022-10-15T05:18:32.402Z,100.00
2022-10-15T05:21:36.411Z,100.00
2022-10-15T05:24:45.279Z,100.00
2022-10-15T05:27:59.780Z,100.00
2022-10-15T05:31:10.979Z,100.00
2022-10-15T05:34:14.714Z,100.00
2022-10-15T05:37:26.519Z,100.00
2022-10-15T05:40:28.831Z,100.00
2022-10-15T05:43:41.369Z,100.00
2022-10-15T05:46:51.775Z,100.00
2022-10-15T05:49:57.926Z,100.00
2022-10-15T05:53:05.061Z,100.00
2022-10-15T05:56:17.042Z,99.33
2022-10-15T05:59:19.215Z,100.00
2022-10-15T06:02:21.265Z,99.39
2022-10-15T06:05:23.497Z,98.62
2022-10-15T06:08:25.610Z,97.91
2022-10-15T06:11:27.862Z,96.28
2022-10-15T06:14:30.490Z,95.90
2022-10-15T06:17:32.420Z,96.22
2022-10-15T06:20:34.926Z,96.56
2022-10-15T06:23:37.097Z,94.63
2022-10-15T06:26:39.090Z,95.08
2022-10-15T06:29:41.809Z,94.23
2022-10-15T06:32:51.446Z,94.79
2022-10-15T06:35:53.674Z,95.04
2022-10-15T06:38:55.506Z,94.18
2022-10-15T06:41:57.580Z,93.71
2022-10-15T06:45:11.076Z,93.29
2022-10-15T06:48:13.159Z,93.51
2022-10-15T06:51:15.410Z,92.72
2022-10-15T06:54:25.546Z,92.42
2022-10-15T06:57:28.465Z,92.54
2022-10-15T07:00:30.411Z,91.08
2022-10-15T07:03:33.107Z,91.68
2022-10-15T07:06:35.666Z,89.80
2022-10-15T07:09:37.766Z,87.90
2022-10-15T07:12:39.683Z,88.98
2022-10-15T07:15:42.572Z,87.49
2022-10-15T07:18:45.434Z,88.58
2022-10-15T07:21:47.390Z,86.67
2022-10-15T07:24:50.516Z,87.22
2022-10-15T07:27:52.786Z,86.62
2022-10-15T07:30:54.914Z,86.42
2022-10-15T07:33:57.344Z,87.23
2022-10-15T07:36:59.170Z,86.61
2022-10-15T07:40:01.479Z,86.16
2022-10-15T07:43:03.714Z,85.93
2022-10-15T07:46:07.043Z,86.05
2022-10-15T07:49:10.308Z,87.10
2022-10-15T07:52:13.372Z,85.75
2022-10-15T07:55:15.848Z,87.60
2022-10-15T07:58:18.078Z,86.32
2022-10-15T08:01:21.245Z,86.43
2022-10-15T08:04:23.447Z,86.96
2022-10-15T08:07:25.701Z,87.37
2022-10-15T08:10:28.147Z,86.63
2022-10-15T08:13:30.521Z,87.03
2022-10-15T08:16:32.799Z,85.91
2022-10-15T08:19:35.196Z,86.80
2022-10-15T08:22:37.296Z,87.41
2022-10-15T08:25:39.950Z,88.24
2022-10-15T08:28:41.918Z,88.16
2022-10-15T08:31:44.710Z,88.85
2022-10-15T08:34:46.886Z,88.65
2022-10-15T08:37:48.841Z,88.95
2022-10-15T08:40:53.567Z,86.98
2022-10-15T08:43:55.847Z,86.96
2022-10-15T08:47:29.072Z,86.72
2022-10-15T08:50:40.748Z,86.71
2022-10-15T08:53:49.720Z,86.56
2022-10-15T08:56:55.625Z,85.16
2022-10-15T09:00:38.866Z,85.93
2022-10-15T09:03:47.169Z,83.92
2022-10-15T09:06:55.080Z,84.34
2022-10-15T09:10:23.951Z,84.04
2022-10-15T09:13:33.915Z,81.45
2022-10-15T09:16:39.755Z,81.80
2022-10-15T09:19:44.581Z,80.18
2022-10-15T09:22:51.521Z,79.14
2022-10-15T09:26:39.398Z,80.00
2022-10-15T09:29:41.706Z,79.73
2022-10-15T09:33:01.198Z,78.62
2022-10-15T09:36:18.472Z,77.71
2022-10-15T09:39:33.010Z,79.10
2022-10-15T09:42:38.841Z,77.27
2022-10-15T09:45:41.174Z,78.33
2022-10-15T09:49:22.789Z,77.10
2022-10-15T09:52:51.893Z,77.64
2022-10-15T09:56:03.808Z,75.09
2022-10-15T09:59:09.720Z,77.14
2022-10-15T10:02:20.300Z,76.26
2022-10-15T10:05:29.119Z,76.00
2022-10-15T10:08:38.647Z,75.85
2022-10-15T10:11:52.459Z,76.22
2022-10-15T10:14:58.591Z,75.80
2022-10-15T10:18:01.984Z,76.06
2022-10-15T10:21:22.211Z,74.22
2022-10-15T10:24:32.278Z,74.73
2022-10-15T10:27:34.448Z,74.58
2022-10-15T10:31:00.404Z,74.14
2022-10-15T10:34:03.309Z,73.96
2022-10-15T10:37:07.230Z,72.82
2022-10-15T10:40:38.823Z,71.37
2022-10-15T10:43:54.874Z,71.44
2022-10-15T10:47:07.118Z,72.12
2022-10-15T10:50:38.188Z,71.11
2022-10-15T10:53:59.474Z,70.24
2022-10-15T10:57:01.883Z,70.68
2022-10-15T11:00:06.499Z,69.75
2022-10-15T11:03:38.191Z,69.44
2022-10-15T11:06:55.650Z,69.14
2022-10-15T11:10:01.990Z,69.88
2022-10-15T11:13:27.600Z,68.26
2022-10-15T11:16:41.347Z,68.51
2022-10-15T11:20:46.254Z,67.56
2022-10-15T11:24:03.244Z,67.31
2022-10-15T11:27:20.749Z,68.02
2022-10-15T11:30:29.993Z,66.74
2022-10-15T11:34:03.047Z,67.66
2022-10-15T11:37:34.606Z,68.58
2022-10-15T11:40:48.770Z,68.19
2022-10-15T11:44:14.673Z,67.86
2022-10-15T11:47:29.325Z,67.70
2022-10-15T11:50:58.025Z,68.12
2022-10-15T11:54:21.094Z,66.73
2022-10-15T11:57:25.836Z,67.99
2022-10-15T12:00:41.420Z,68.73
2022-10-15T12:03:51.907Z,67.89
2022-10-15T12:06:56.423Z,69.19
2022-10-15T12:10:09.948Z,68.54
2022-10-15T12:13:27.198Z,68.39
2022-10-15T12:16:46.341Z,67.63
2022-10-15T12:19:55.290Z,69.02
2022-10-15T12:23:02.791Z,69.05
2022-10-15T12:26:32.601Z,68.31
2022-10-15T12:29:37.490Z,70.74
2022-10-15T12:32:43.355Z,69.81
2022-10-15T12:35:55.358Z,69.63
2022-10-15T12:39:07.790Z,70.34
2022-10-15T12:42:40.376Z,69.54
2022-10-15T12:45:51.649Z,70.27
2022-10-15T12:48:57.487Z,70.27
2022-10-15T12:52:02.130Z,69.04
2022-10-15T12:55:25.238Z,69.34
2022-10-15T12:58:33.789Z,69.43
2022-10-15T13:01:45.291Z,68.39
2022-10-15T13:04:48.803Z,69.79
2022-10-15T13:07:53.299Z,68.60
2022-10-15T13:10:57.982Z,69.04
2022-10-15T13:14:03.084Z,69.65
2022-10-15T13:17:24.043Z,69.25
2022-10-15T13:20:30.933Z,70.04
2022-10-15T13:23:33.731Z,69.71
2022-10-15T13:26:35.786Z,69.35
2022-10-15T13:29:38.647Z,69.00
2022-10-15T13:32:47.081Z,68.99
2022-10-15T13:35:49.365Z,69.21
2022-10-15T13:38:57.779Z,69.17
2022-10-15T13:42:17.146Z,68.84
2022-10-15T13:45:19.097Z,68.56
2022-10-15T13:48:23.541Z,67.90
2022-10-15T13:51:33.248Z,67.56
2022-10-15T13:54:36.666Z,69.13
2022-10-15T13:57:38.920Z,68.14
2022-10-15T14:00:42.770Z,68.92
2022-10-15T14:03:50.738Z,67.91
2022-10-15T14:07:02.577Z,68.41
2022-10-15T14:10:06.032Z,68.56
2022-10-15T14:13:10.703Z,68.61
2022-10-15T14:16:16.540Z,68.47
2022-10-15T14:19:21.557Z,68.77
2022-10-15T14:22:29.267Z,69.94
2022-10-15T14:25:32.331Z,69.18
2022-10-15T14:28:35.215Z,69.59
2022-10-15T14:31:39.822Z,69.44
2022-10-15T14:34:42.717Z,67.75
2022-10-15T14:37:44.830Z,69.23
2022-10-15T14:41:06.371Z,69.51
2022-10-15T14:44:13.295Z,70.27
2022-10-15T14:47:22.205Z,70.48
2022-10-15T14:50:33.863Z,70.85
2022-10-15T14:53:38.345Z,70.93
2022-10-15T14:56:42.769Z,70.22
2022-10-15T14:59:45.225Z,70.80
2022-10-15T15:02:49.390Z,71.19
2022-10-15T15:05:57.454Z,71.05
2022-10-15T15:08:59.591Z,69.81
2022-10-15T15:12:01.721Z,70.51
2022-10-15T15:15:19.232Z,70.18
2022-10-15T15:18:21.402Z,71.08
2022-10-15T15:21:24.275Z,71.78
2022-10-15T15:24:26.240Z,72.03
2022-10-15T15:27:37.303Z,70.85
2022-10-15T15:30:42.020Z,71.69
2022-10-15T15:33:44.523Z,71.23
2022-10-15T15:36:46.677Z,71.60
2022-10-15T15:39:49.326Z,71.85
2022-10-15T15:42:51.890Z,72.15
2022-10-15T15:45:54.480Z,73.24
2022-10-15T15:48:58.708Z,71.75
2022-10-15T15:52:00.974Z,72.66
2022-10-15T15:55:03.020Z,73.23
2022-10-15T15:58:05.033Z,73.54
2022-10-15T16:01:06.953Z,73.28
2022-10-15T16:04:08.936Z,73.15
2022-10-15T16:07:13.352Z,72.92
2022-10-15T16:10:15.901Z,72.76
2022-10-15T16:13:18.112Z,72.71
2022-10-15T16:16:19.980Z,73.26
2022-10-15T16:19:22.082Z,74.07
2022-10-15T16:22:23.965Z,74.04
2022-10-15T16:25:29.215Z,74.11
2022-10-15T16:28:32.193Z,74.05
2022-10-15T16:31:37.138Z,74.47
2022-10-15T16:34:39.075Z,74.27
2022-10-15T16:37:41.260Z,74.17
2022-10-15T16:40:47.442Z,74.42
2022-10-15T16:43:49.832Z,74.43
2022-10-15T16:46:51.827Z,74.32
2022-10-15T16:49:55.469Z,74.82
2022-10-15T16:52:57.654Z,74.69
2022-10-15T16:56:01.528Z,74.57
2022-10-15T16:59:03.683Z,74.11
2022-10-15T17:02:05.983Z,75.09
2022-10-15T17:05:08.794Z,74.99
2022-10-15T17:08:14.436Z,75.25
2022-10-15T17:11:22.339Z,75.20
2022-10-15T17:14:27.423Z,75.15
2022-10-15T17:17:29.707Z,75.40
2022-10-15T17:20:31.577Z,75.50
2022-10-15T17:23:33.628Z,75.28
2022-10-15T17:26:39.135Z,75.49
2022-10-15T17:29:41.368Z,75.66
2022-10-15T17:32:43.540Z,75.55
2022-10-15T17:35:45.552Z,75.59
2022-10-15T17:38:48.176Z,76.30
2022-10-15T17:41:51.973Z,76.45
2022-10-15T17:44:54.204Z,75.68
2022-10-15T17:47:56.241Z,75.63
2022-10-15T17:51:02.720Z,75.31
2022-10-15T17:54:05.107Z,76.01
2022-10-15T17:57:07.787Z,75.76
2022-10-15T18:00:11.577Z,76.37
2022-10-15T18:03:16.492Z,76.48
2022-10-15T18:06:21.870Z,76.52
2022-10-15T18:09:27.621Z,76.37
2022-10-15T18:12:32.664Z,76.24
2022-10-15T18:15:37.991Z,76.55
2022-10-15T18:18:41.120Z,76.73
2022-10-15T18:21:47.005Z,77.21
2022-10-15T18:24:51.917Z,77.68
2022-10-15T18:27:54.046Z,77.53
2022-10-15T18:30:56.040Z,77.39
2022-10-15T18:33:58.090Z,77.29
2022-10-15T18:37:00.776Z,77.37
2022-10-15T18:40:02.977Z,77.05
2022-10-15T18:43:05.826Z,77.06
2022-10-15T18:46:11.566Z,77.02
2022-10-15T18:49:16.247Z,77.28
2022-10-15T18:52:28.128Z,77.16
2022-10-15T18:55:40.552Z,76.78
2022-10-15T18:58:45.717Z,76.91
2022-10-15T19:01:49.587Z,77.01
2022-10-15T19:04:51.963Z,77.03
2022-10-15T19:07:55.755Z,77.17
2022-10-15T19:11:07.205Z,77.84
2022-10-15T19:14:09.695Z,77.81
2022-10-15T19:17:13.000Z,77.38
2022-10-15T19:20:15.505Z,76.81
2022-10-15T19:23:17.706Z,77.17
2022-10-15T19:26:19.933Z,76.97
2022-10-15T19:29:22.073Z,76.65
2022-10-15T19:32:27.208Z,76.93
2022-10-15T19:35:29.469Z,77.04
2022-10-15T19:38:32.409Z,77.89
2022-10-15T19:41:39.613Z,79.65
2022-10-15T19:44:41.952Z,78.82
2022-10-15T19:47:44.311Z,79.39
2022-10-15T19:50:47.435Z,78.71
2022-10-15T19:53:54.550Z,79.19
2022-10-15T19:56:57.019Z,79.54
2022-10-15T19:59:59.694Z,81.15
2022-10-15T20:03:02.196Z,82.77
2022-10-15T20:06:08.308Z,81.99
2022-10-15T20:09:10.687Z,81.89
2022-10-15T20:12:12.721Z,81.86
2022-10-15T20:15:16.182Z,82.23
2022-10-15T20:18:19.248Z,81.74
2022-10-15T20:21:21.476Z,81.45
2022-10-15T20:24:23.809Z,81.58
2022-10-15T20:27:27.913Z,80.86
2022-10-15T20:30:33.004Z,81.28
2022-10-15T20:33:38.597Z,81.64
2022-10-15T20:36:42.598Z,82.21
2022-10-15T20:39:45.198Z,81.75
2022-10-15T20:42:54.255Z,81.62
2022-10-15T20:46:00.420Z,81.70
2022-10-15T20:49:09.509Z,82.73
2022-10-15T20:52:11.949Z,82.14
2022-10-15T20:55:14.139Z,81.70
2022-10-15T21:01:23.559Z,81.50
2022-10-15T21:04:25.660Z,82.09
2022-10-15T21:07:31.321Z,82.15
2022-10-15T21:10:35.488Z,82.11
2022-10-15T21:13:37.540Z,82.29
2022-10-15T21:16:40.761Z,81.95
2022-10-15T21:19:42.842Z,82.97
2022-10-15T21:22:44.921Z,83.12
2022-10-15T21:25:46.980Z,84.37
2022-10-15T21:28:49.152Z,84.97
2022-10-15T21:31:52.744Z,84.29
2022-10-15T21:34:54.527Z,83.50
2022-10-15T21:37:59.811Z,82.36
2022-10-15T21:41:01.738Z,82.98
2022-10-15T21:44:07.606Z,82.89
2022-10-15T21:47:12.876Z,82.30
2022-10-15T21:50:17.210Z,82.77
2022-10-15T21:53:19.083Z,83.57
2022-10-15T21:56:21.650Z,83.22
2022-10-15T21:59:23.717Z,82.71
2022-10-15T22:02:25.828Z,85.01
2022-10-15T22:05:27.754Z,85.16
2022-10-15T22:08:29.953Z,84.91
2022-10-15T22:11:34.440Z,83.86
2022-10-15T22:14:36.394Z,86.44
2022-10-15T22:17:40.845Z,85.82
2022-10-15T22:20:42.612Z,86.61
2022-10-15T22:23:46.905Z,85.02
2022-10-15T22:26:51.282Z,84.42
2022-10-15T22:29:53.419Z,85.41
2022-10-15T22:32:55.123Z,86.35
2022-10-15T22:36:03.737Z,86.59
2022-10-15T22:39:06.763Z,85.80
2022-10-15T22:42:08.804Z,86.67
2022-10-15T22:45:10.690Z,86.34
2022-10-15T22:48:12.879Z,85.57
2022-10-15T22:51:16.036Z,86.17
2022-10-15T22:54:19.712Z,85.11
2022-10-15T22:57:21.384Z,84.09
2022-10-15T23:00:23.741Z,83.94
2022-10-15T23:03:25.404Z,84.11
2022-10-15T23:06:28.557Z,84.10
2022-10-15T23:09:30.269Z,84.39
2022-10-15T23:12:32.076Z,84.92
2022-10-15T23:15:34.166Z,85.24
2022-10-15T23:18:35.986Z,84.44
2022-10-15T23:21:45.114Z,84.55
2022-10-15T23:24:47.021Z,83.19
2022-10-15T23:27:49.288Z,84.33
2022-10-15T23:30:51.237Z,84.48
2022-10-15T23:33:54.912Z,85.96
2022-10-15T23:36:57.001Z,84.73
2022-10-15T23:39:59.006Z,84.38
2022-10-15T23:43:01.555Z,84.85
2022-10-15T23:46:04.149Z,84.18
2022-10-15T23:49:06.914Z,84.65
2022-10-15T23:52:09.001Z,83.46
2022-10-15T23:55:10.843Z,84.87
2022-10-15T23:58:13.027Z,84.37
